sensor_id;sensor_type;location;lat;lon;timestamp;pressure;altitude;pressure_sealevel;temperature;humidity
48874;BME280;66155;46.204;5.220;2023-06-26T00:04:47;98756.31;;;27.29;47.06
48874;BME280;66155;46.204;5.220;2023-06-26T00:09:48;98757.28;;;27.21;46.82
48874;BME280;66155;46.204;5.220;2023-06-26T00:14:48;98758.31;;;27.13;46.86
48874;BME280;66155;46.204;5.220;2023-06-26T00:19:49;98762.81;;;27.09;46.96
48874;BME280;66155;46.204;5.220;2023-06-26T00:24:50;98767.59;;;27.00;47.08
48874;BME280;66155;46.204;5.220;2023-06-26T00:29:50;98768.59;;;26.91;47.67
48874;BME280;66155;46.204;5.220;2023-06-26T00:34:52;98761.28;;;26.88;47.19
48874;BME280;66155;46.204;5.220;2023-06-26T00:39:53;98768.38;;;26.81;47.06
48874;BME280;66155;46.204;5.220;2023-06-26T00:44:53;98773.59;;;26.73;47.06
48874;BME280;66155;46.204;5.220;2023-06-26T00:49:54;98768.59;;;26.72;47.44
48874;BME280;66155;46.204;5.220;2023-06-26T00:54:55;98768.47;;;26.65;47.14
48874;BME280;66155;46.204;5.220;2023-06-26T00:59:56;98759.09;;;26.55;47.17
48874;BME280;66155;46.204;5.220;2023-06-26T01:04:57;98773.84;;;26.49;47.02
48874;BME280;66155;46.204;5.220;2023-06-26T01:09:57;98771.47;;;26.44;47.32
48874;BME280;66155;46.204;5.220;2023-06-26T01:14:59;98772.16;;;26.41;47.10
48874;BME280;66155;46.204;5.220;2023-06-26T01:20:02;98772.94;;;26.41;47.21
48874;BME280;66155;46.204;5.220;2023-06-26T01:30:42;98777.69;;;26.32;47.15
48874;BME280;66155;46.204;5.220;2023-06-26T01:35:43;98780.28;;;26.28;47.44
48874;BME280;66155;46.204;5.220;2023-06-26T01:40:44;98782.19;;;26.28;47.25
48874;BME280;66155;46.204;5.220;2023-06-26T01:45:46;98797.44;;;26.27;47.21
48874;BME280;66155;46.204;5.220;2023-06-26T01:50:51;98796.59;;;26.23;47.48
48874;BME280;66155;46.204;5.220;2023-06-26T01:55:59;98798.06;;;26.21;47.32
48874;BME280;66155;46.204;5.220;2023-06-26T02:01:01;98794.09;;;26.14;47.40
48874;BME280;66155;46.204;5.220;2023-06-26T02:06:01;98804.28;;;26.09;47.41
48874;BME280;66155;46.204;5.220;2023-06-26T02:11:02;98808.84;;;26.08;47.46
48874;BME280;66155;46.204;5.220;2023-06-26T02:16:03;98814.53;;;26.07;47.28
48874;BME280;66155;46.204;5.220;2023-06-26T02:21:03;98813.25;;;26.01;47.86
48874;BME280;66155;46.204;5.220;2023-06-26T02:26:04;98821.25;;;26.01;47.69
48874;BME280;66155;46.204;5.220;2023-06-26T02:31:04;98817.47;;;26.02;47.98
48874;BME280;66155;46.204;5.220;2023-06-26T02:36:05;98828.50;;;26.00;48.05
48874;BME280;66155;46.204;5.220;2023-06-26T02:41:05;98823.75;;;25.93;48.33
48874;BME280;66155;46.204;5.220;2023-06-26T02:46:06;98829.69;;;25.87;48.25
48874;BME280;66155;46.204;5.220;2023-06-26T02:51:07;98836.06;;;25.82;48.39
48874;BME280;66155;46.204;5.220;2023-06-26T02:56:07;98840.53;;;25.78;48.38
48874;BME280;66155;46.204;5.220;2023-06-26T03:01:08;98847.41;;;25.79;48.42
48874;BME280;66155;46.204;5.220;2023-06-26T03:06:09;98847.66;;;25.74;48.48
48874;BME280;66155;46.204;5.220;2023-06-26T03:11:09;98859.38;;;25.69;48.54
48874;BME280;66155;46.204;5.220;2023-06-26T03:16:10;98857.06;;;25.68;48.58
48874;BME280;66155;46.204;5.220;2023-06-26T03:21:10;98860.31;;;25.61;48.69
48874;BME280;66155;46.204;5.220;2023-06-26T03:26:11;98870.97;;;25.61;48.56
48874;BME280;66155;46.204;5.220;2023-06-26T03:31:11;98862.53;;;25.59;49.06
48874;BME280;66155;46.204;5.220;2023-06-26T03:36:12;98867.22;;;25.62;48.72
48874;BME280;66155;46.204;5.220;2023-06-26T03:41:12;98868.75;;;25.63;48.82
48874;BME280;66155;46.204;5.220;2023-06-26T03:46:13;98866.06;;;25.63;49.01
48874;BME280;66155;46.204;5.220;2023-06-26T03:51:14;98855.41;;;25.63;48.91
48874;BME280;66155;46.204;5.220;2023-06-26T03:56:14;98857.72;;;25.65;48.90
48874;BME280;66155;46.204;5.220;2023-06-26T04:01:15;98868.81;;;25.67;48.83
48874;BME280;66155;46.204;5.220;2023-06-26T04:06:15;98873.75;;;25.65;49.09
48874;BME280;66155;46.204;5.220;2023-06-26T04:11:16;98874.88;;;25.64;49.25
48874;BME280;66155;46.204;5.220;2023-06-26T04:16:16;98882.19;;;25.67;49.15
48874;BME280;66155;46.204;5.220;2023-06-26T04:21:17;98877.19;;;25.65;49.26
48874;BME280;66155;46.204;5.220;2023-06-26T04:26:18;98885.63;;;25.67;49.27
48874;BME280;66155;46.204;5.220;2023-06-26T04:31:18;98889.84;;;25.68;49.27
48874;BME280;66155;46.204;5.220;2023-06-26T04:36:19;98885.81;;;25.74;49.09
48874;BME280;66155;46.204;5.220;2023-06-26T04:41:19;98887.34;;;25.75;49.24
48874;BME280;66155;46.204;5.220;2023-06-26T04:46:19;98901.91;;;25.78;48.98
48874;BME280;66155;46.204;5.220;2023-06-26T04:51:20;98901.63;;;25.83;49.11
48874;BME280;66155;46.204;5.220;2023-06-26T04:56:21;98906.22;;;25.83;49.28
48874;BME280;66155;46.204;5.220;2023-06-26T05:01:21;98907.19;;;25.90;49.15
48874;BME280;66155;46.204;5.220;2023-06-26T05:06:22;98919.41;;;25.91;49.39
48874;BME280;66155;46.204;5.220;2023-06-26T05:11:24;98917.03;;;25.74;49.53
48874;BME280;66155;46.204;5.220;2023-06-26T05:16:25;98922.34;;;25.58;49.85
48874;BME280;66155;46.204;5.220;2023-06-26T05:21:25;98924.44;;;25.65;49.86
48874;BME280;66155;46.204;5.220;2023-06-26T05:26:26;98919.88;;;25.65;49.82
48874;BME280;66155;46.204;5.220;2023-06-26T05:31:27;98928.94;;;25.76;49.70
48874;BME280;66155;46.204;5.220;2023-06-26T05:36:27;98929.13;;;25.84;49.70
48874;BME280;66155;46.204;5.220;2023-06-26T05:41:29;98933.66;;;25.83;49.93
48874;BME280;66155;46.204;5.220;2023-06-26T05:46:30;98930.75;;;25.44;50.81
48874;BME280;66155;46.204;5.220;2023-06-26T05:51:30;98939.16;;;25.18;51.43
48874;BME280;66155;46.204;5.220;2023-06-26T05:56:32;98931.31;;;24.97;51.71
48874;BME280;66155;46.204;5.220;2023-06-26T06:01:33;98939.22;;;24.81;52.54
48874;BME280;66155;46.204;5.220;2023-06-26T06:06:36;98943.09;;;24.71;52.75
48874;BME280;66155;46.204;5.220;2023-06-26T06:11:37;98950.22;;;24.67;53.26
48874;BME280;66155;46.204;5.220;2023-06-26T06:16:37;98954.28;;;24.52;53.96
48874;BME280;66155;46.204;5.220;2023-06-26T06:21:38;98969.25;;;24.44;54.24
48874;BME280;66155;46.204;5.220;2023-06-26T06:26:38;98976.13;;;24.33;54.34
48874;BME280;66155;46.204;5.220;2023-06-26T06:31:39;98980.25;;;24.31;54.05
48874;BME280;66155;46.204;5.220;2023-06-26T06:36:39;98977.47;;;24.27;54.46
48874;BME280;66155;46.204;5.220;2023-06-26T06:41:40;98980.47;;;24.38;54.43
48874;BME280;66155;46.204;5.220;2023-06-26T06:46:40;98983.59;;;24.40;54.37
48874;BME280;66155;46.204;5.220;2023-06-26T06:51:40;98986.16;;;24.48;54.51
48874;BME280;66155;46.204;5.220;2023-06-26T06:56:43;98984.38;;;24.53;54.45
48874;BME280;66155;46.204;5.220;2023-06-26T07:01:44;98979.94;;;24.57;54.05
48874;BME280;66155;46.204;5.220;2023-06-26T07:06:44;98977.50;;;24.64;54.11
48874;BME280;66155;46.204;5.220;2023-06-26T07:11:44;98986.63;;;24.75;54.01
48874;BME280;66155;46.204;5.220;2023-06-26T07:16:46;98995.41;;;24.76;54.04
48874;BME280;66155;46.204;5.220;2023-06-26T07:21:46;98998.72;;;24.85;53.95
48874;BME280;66155;46.204;5.220;2023-06-26T07:26:47;98996.59;;;24.91;53.90
48874;BME280;66155;46.204;5.220;2023-06-26T07:31:47;99006.91;;;25.04;53.76
48874;BME280;66155;46.204;5.220;2023-06-26T07:36:48;98992.94;;;25.08;53.52
48874;BME280;66155;46.204;5.220;2023-06-26T07:41:48;98999.47;;;25.10;53.12
48874;BME280;66155;46.204;5.220;2023-06-26T07:46:48;99011.25;;;25.09;53.39
48874;BME280;66155;46.204;5.220;2023-06-26T07:51:49;99002.25;;;25.14;53.42
48874;BME280;66155;46.204;5.220;2023-06-26T07:57:00;98998.34;;;25.23;53.49
48874;BME280;66155;46.204;5.220;2023-06-26T08:02:01;99001.91;;;25.28;53.21
48874;BME280;66155;46.204;5.220;2023-06-26T08:07:02;99004.13;;;25.38;53.22
48874;BME280;66155;46.204;5.220;2023-06-26T08:12:04;99014.91;;;25.29;53.60
48874;BME280;66155;46.204;5.220;2023-06-26T08:17:04;99009.25;;;25.18;53.46
48874;BME280;66155;46.204;5.220;2023-06-26T08:22:05;99005.81;;;25.18;53.44
48874;BME280;66155;46.204;5.220;2023-06-26T08:27:05;99029.47;;;25.19;53.70
48874;BME280;66155;46.204;5.220;2023-06-26T08:32:07;99020.00;;;25.22;53.10
48874;BME280;66155;46.204;5.220;2023-06-26T08:37:08;99027.91;;;25.18;52.93
48874;BME280;66155;46.204;5.220;2023-06-26T08:42:09;99017.16;;;25.27;52.83
48874;BME280;66155;46.204;5.220;2023-06-26T08:47:11;99020.13;;;25.38;52.20
48874;BME280;66155;46.204;5.220;2023-06-26T08:52:17;99033.00;;;25.23;52.39
48874;BME280;66155;46.204;5.220;2023-06-26T08:57:20;99016.16;;;25.32;52.45
48874;BME280;66155;46.204;5.220;2023-06-26T09:02:22;99020.44;;;25.49;52.00
48874;BME280;66155;46.204;5.220;2023-06-26T09:07:22;99030.97;;;25.57;52.17
48874;BME280;66155;46.204;5.220;2023-06-26T09:12:23;99047.66;;;25.54;51.95
48874;BME280;66155;46.204;5.220;2023-06-26T09:17:32;99048.88;;;25.57;51.70
48874;BME280;66155;46.204;5.220;2023-06-26T09:22:36;99053.66;;;25.64;51.61
48874;BME280;66155;46.204;5.220;2023-06-26T09:27:38;99056.25;;;25.76;51.46
48874;BME280;66155;46.204;5.220;2023-06-26T09:32:39;99049.03;;;25.76;51.40
48874;BME280;66155;46.204;5.220;2023-06-26T09:37:39;99053.44;;;25.85;51.31
48874;BME280;66155;46.204;5.220;2023-06-26T09:42:40;99062.44;;;25.92;51.30
48874;BME280;66155;46.204;5.220;2023-06-26T09:47:44;99046.16;;;26.10;50.96
48874;BME280;66155;46.204;5.220;2023-06-26T09:52:44;99056.59;;;26.31;50.46
48874;BME280;66155;46.204;5.220;2023-06-26T09:57:46;99047.59;;;26.51;49.77
48874;BME280;66155;46.204;5.220;2023-06-26T10:02:47;99054.50;;;26.52;49.47
48874;BME280;66155;46.204;5.220;2023-06-26T10:07:48;99051.53;;;26.42;48.76
48874;BME280;66155;46.204;5.220;2023-06-26T10:12:52;99042.41;;;26.43;49.16
48874;BME280;66155;46.204;5.220;2023-06-26T10:17:56;99050.34;;;26.55;48.61
48874;BME280;66155;46.204;5.220;2023-06-26T10:23:00;99052.25;;;26.54;48.08
48874;BME280;66155;46.204;5.220;2023-06-26T10:28:02;99051.03;;;26.52;47.64
48874;BME280;66155;46.204;5.220;2023-06-26T10:33:03;99050.22;;;26.64;47.27
48874;BME280;66155;46.204;5.220;2023-06-26T10:38:04;99050.94;;;26.48;47.10
48874;BME280;66155;46.204;5.220;2023-06-26T10:43:07;99038.03;;;26.66;46.91
48874;BME280;66155;46.204;5.220;2023-06-26T10:48:08;99043.19;;;26.59;46.90
48874;BME280;66155;46.204;5.220;2023-06-26T11:03:32;99036.00;;;26.76;47.08
48874;BME280;66155;46.204;5.220;2023-06-26T11:08:44;99027.34;;;26.82;47.04
48874;BME280;66155;46.204;5.220;2023-06-26T11:13:47;99034.75;;;27.05;46.99
48874;BME280;66155;46.204;5.220;2023-06-26T11:18:49;99033.03;;;26.97;46.76
48874;BME280;66155;46.204;5.220;2023-06-26T11:23:50;99023.44;;;27.11;46.64
48874;BME280;66155;46.204;5.220;2023-06-26T11:28:53;99029.00;;;27.38;46.11
48874;BME280;66155;46.204;5.220;2023-06-26T11:33:55;99024.84;;;27.41;45.98
48874;BME280;66155;46.204;5.220;2023-06-26T11:39:01;99024.56;;;27.65;45.69
48874;BME280;66155;46.204;5.220;2023-06-26T11:44:07;99023.03;;;27.84;45.40
48874;BME280;66155;46.204;5.220;2023-06-26T11:49:08;99013.56;;;27.90;45.61
48874;BME280;66155;46.204;5.220;2023-06-26T11:54:08;99019.75;;;28.14;44.97
48874;BME280;66155;46.204;5.220;2023-06-26T11:59:12;99015.31;;;28.21;45.31
48874;BME280;66155;46.204;5.220;2023-06-26T12:04:17;99010.00;;;28.02;44.86
48874;BME280;66155;46.204;5.220;2023-06-26T12:09:19;99013.03;;;28.00;45.00
48874;BME280;66155;46.204;5.220;2023-06-26T12:14:21;99002.97;;;28.17;44.68
48874;BME280;66155;46.204;5.220;2023-06-26T12:19:25;98999.81;;;28.34;44.14
48874;BME280;66155;46.204;5.220;2023-06-26T12:24:27;99007.03;;;28.30;43.77
48874;BME280;66155;46.204;5.220;2023-06-26T12:29:38;99004.34;;;28.53;43.83
48874;BME280;66155;46.204;5.220;2023-06-26T12:34:39;99003.38;;;28.65;43.22
48874;BME280;66155;46.204;5.220;2023-06-26T12:39:49;98995.09;;;28.74;42.55
48874;BME280;66155;46.204;5.220;2023-06-26T12:44:51;98997.13;;;28.80;43.12
48874;BME280;66155;46.204;5.220;2023-06-26T12:49:52;98989.53;;;28.86;43.02
48874;BME280;66155;46.204;5.220;2023-06-26T12:54:54;98993.69;;;29.10;42.39
48874;BME280;66155;46.204;5.220;2023-06-26T12:59:56;98981.41;;;29.09;42.21
48874;BME280;66155;46.204;5.220;2023-06-26T13:04:56;98981.25;;;29.25;41.62
48874;BME280;66155;46.204;5.220;2023-06-26T13:09:56;98989.81;;;29.34;41.36
48874;BME280;66155;46.204;5.220;2023-06-26T13:14:57;98977.53;;;29.33;40.81
48874;BME280;66155;46.204;5.220;2023-06-26T13:19:57;98976.47;;;29.42;40.60
48874;BME280;66155;46.204;5.220;2023-06-26T13:24:58;98982.72;;;29.19;39.94
48874;BME280;66155;46.204;5.220;2023-06-26T13:29:58;98978.56;;;29.25;40.49
48874;BME280;66155;46.204;5.220;2023-06-26T13:34:58;98973.00;;;29.41;39.54
48874;BME280;66155;46.204;5.220;2023-06-26T13:39:59;98974.47;;;29.35;39.98
48874;BME280;66155;46.204;5.220;2023-06-26T13:45:02;98962.53;;;29.66;39.19
48874;BME280;66155;46.204;5.220;2023-06-26T13:50:04;98963.22;;;29.93;38.71
48874;BME280;66155;46.204;5.220;2023-06-26T13:55:07;98963.22;;;29.93;38.43
48874;BME280;66155;46.204;5.220;2023-06-26T14:00:09;98956.00;;;30.01;38.30
48874;BME280;66155;46.204;5.220;2023-06-26T14:05:10;98957.31;;;30.22;37.87
48874;BME280;66155;46.204;5.220;2023-06-26T14:10:11;98952.75;;;30.22;37.91
48874;BME280;66155;46.204;5.220;2023-06-26T14:15:11;98950.69;;;30.53;37.17
48874;BME280;66155;46.204;5.220;2023-06-26T14:20:11;98957.00;;;30.82;36.52
48874;BME280;66155;46.204;5.220;2023-06-26T14:25:16;98944.50;;;31.15;36.21
48874;BME280;66155;46.204;5.220;2023-06-26T14:30:16;98945.66;;;31.18;36.01
48874;BME280;66155;46.204;5.220;2023-06-26T14:35:17;98928.88;;;31.57;35.69
48874;BME280;66155;46.204;5.220;2023-06-26T14:40:18;98927.00;;;31.75;35.13
48874;BME280;66155;46.204;5.220;2023-06-26T14:45:18;98930.09;;;31.92;34.38
48874;BME280;66155;46.204;5.220;2023-06-26T14:50:19;98915.09;;;32.16;33.80
48874;BME280;66155;46.204;5.220;2023-06-26T14:55:19;98925.06;;;32.33;34.01
48874;BME280;66155;46.204;5.220;2023-06-26T15:00:20;98932.78;;;32.38;33.78
48874;BME280;66155;46.204;5.220;2023-06-26T15:05:21;98918.53;;;32.31;33.93
48874;BME280;66155;46.204;5.220;2023-06-26T15:10:22;98920.47;;;32.41;33.75
48874;BME280;66155;46.204;5.220;2023-06-26T15:15:23;98907.72;;;32.63;33.29
48874;BME280;66155;46.204;5.220;2023-06-26T15:20:24;98925.84;;;32.52;32.71
48874;BME280;66155;46.204;5.220;2023-06-26T15:25:24;98910.81;;;32.62;33.20
48874;BME280;66155;46.204;5.220;2023-06-26T15:30:25;98908.78;;;32.91;32.79
48874;BME280;66155;46.204;5.220;2023-06-26T15:35:25;98913.06;;;32.77;32.94
48874;BME280;66155;46.204;5.220;2023-06-26T15:40:26;98898.50;;;32.50;33.21
48874;BME280;66155;46.204;5.220;2023-06-26T15:45:27;98896.56;;;32.61;32.63
48874;BME280;66155;46.204;5.220;2023-06-26T15:50:27;98895.78;;;32.57;32.72
48874;BME280;66155;46.204;5.220;2023-06-26T15:55:28;98897.31;;;32.47;32.97
48874;BME280;66155;46.204;5.220;2023-06-26T16:00:28;98892.38;;;32.13;33.27
48874;BME280;66155;46.204;5.220;2023-06-26T16:05:28;98896.22;;;32.19;33.16
48874;BME280;66155;46.204;5.220;2023-06-26T16:10:29;98888.09;;;32.41;32.95
48874;BME280;66155;46.204;5.220;2023-06-26T16:15:29;98875.81;;;32.22;33.24
48874;BME280;66155;46.204;5.220;2023-06-26T16:20:30;98884.22;;;32.46;32.64
48874;BME280;66155;46.204;5.220;2023-06-26T16:25:30;98880.31;;;32.75;32.72
48874;BME280;66155;46.204;5.220;2023-06-26T16:30:30;98891.13;;;32.57;33.23
48874;BME280;66155;46.204;5.220;2023-06-26T16:35:31;98876.94;;;32.39;33.16
48874;BME280;66155;46.204;5.220;2023-06-26T16:40:34;98882.34;;;32.35;33.31
48874;BME280;66155;46.204;5.220;2023-06-26T16:45:34;98873.44;;;32.46;32.50
48874;BME280;66155;46.204;5.220;2023-06-26T16:50:35;98890.47;;;32.21;32.66
48874;BME280;66155;46.204;5.220;2023-06-26T16:55:35;98878.88;;;31.88;33.00
48874;BME280;66155;46.204;5.220;2023-06-26T17:00:35;98888.84;;;31.52;33.33
48874;BME280;66155;46.204;5.220;2023-06-26T17:05:38;98898.81;;;31.44;33.17
48874;BME280;66155;46.204;5.220;2023-06-26T17:10:38;98894.13;;;31.12;33.49
48874;BME280;66155;46.204;5.220;2023-06-26T17:15:39;98901.44;;;31.15;33.50
48874;BME280;66155;46.204;5.220;2023-06-26T17:20:39;98899.50;;;31.12;33.28
48874;BME280;66155;46.204;5.220;2023-06-26T17:25:40;98905.25;;;31.11;33.39
48874;BME280;66155;46.204;5.220;2023-06-26T17:30:40;98910.25;;;31.05;33.73
48874;BME280;66155;46.204;5.220;2023-06-26T17:35:42;98913.19;;;30.82;33.80
48874;BME280;66155;46.204;5.220;2023-06-26T17:40:42;98919.03;;;30.95;33.47
48874;BME280;66155;46.204;5.220;2023-06-26T17:45:43;98919.81;;;30.95;33.60
48874;BME280;66155;46.204;5.220;2023-06-26T17:50:43;98922.16;;;31.00;33.69
48874;BME280;66155;46.204;5.220;2023-06-26T17:55:43;98934.81;;;31.00;33.78
48874;BME280;66155;46.204;5.220;2023-06-26T18:00:44;98944.06;;;30.99;33.83
48874;BME280;66155;46.204;5.220;2023-06-26T18:05:44;98937.50;;;31.00;33.51
48874;BME280;66155;46.204;5.220;2023-06-26T18:10:45;98948.13;;;30.75;34.08
48874;BME280;66155;46.204;5.220;2023-06-26T18:15:45;98942.63;;;30.57;34.51
48874;BME280;66155;46.204;5.220;2023-06-26T18:20:46;98947.56;;;30.47;34.55
48874;BME280;66155;46.204;5.220;2023-06-26T18:25:46;98954.53;;;30.07;34.95
48874;BME280;66155;46.204;5.220;2023-06-26T18:30:46;98960.94;;;29.92;35.47
48874;BME280;66155;46.204;5.220;2023-06-26T18:35:47;98958.91;;;29.82;35.77
48874;BME280;66155;46.204;5.220;2023-06-26T18:40:47;98964.44;;;29.62;36.03
48874;BME280;66155;46.204;5.220;2023-06-26T18:45:48;98957.47;;;29.57;36.13
48874;BME280;66155;46.204;5.220;2023-06-26T18:50:48;98965.72;;;29.42;36.46
48874;BME280;66155;46.204;5.220;2023-06-26T18:55:49;98966.28;;;29.24;36.71
48874;BME280;66155;46.204;5.220;2023-06-26T19:00:49;98974.13;;;29.10;37.13
48874;BME280;66155;46.204;5.220;2023-06-26T19:05:49;98975.53;;;29.00;37.18
48874;BME280;66155;46.204;5.220;2023-06-26T19:10:52;98990.09;;;28.72;37.70
48874;BME280;66155;46.204;5.220;2023-06-26T19:15:53;98985.78;;;28.41;38.36
48874;BME280;66155;46.204;5.220;2023-06-26T19:20:53;98996.00;;;28.12;38.87
48874;BME280;66155;46.204;5.220;2023-06-26T19:25:53;99007.78;;;27.88;38.93
48874;BME280;66155;46.204;5.220;2023-06-26T19:30:54;99005.81;;;27.65;39.54
48874;BME280;66155;46.204;5.220;2023-06-26T19:35:54;99011.59;;;27.48;39.78
48874;BME280;66155;46.204;5.220;2023-06-26T19:40:55;99017.00;;;27.32;40.19
48874;BME280;66155;46.204;5.220;2023-06-26T19:45:55;99022.28;;;27.12;40.53
48874;BME280;66155;46.204;5.220;2023-06-26T19:50:56;99026.91;;;26.96;40.59
48874;BME280;66155;46.204;5.220;2023-06-26T19:55:56;99035.28;;;26.79;41.06
48874;BME280;66155;46.204;5.220;2023-06-26T20:00:57;99042.84;;;26.61;41.34
48874;BME280;66155;46.204;5.220;2023-06-26T20:05:57;99056.28;;;26.04;42.33
48874;BME280;66155;46.204;5.220;2023-06-26T20:10:58;99056.75;;;25.66;43.18
48874;BME280;66155;46.204;5.220;2023-06-26T20:15:59;99050.81;;;25.44;43.55
48874;BME280;66155;46.204;5.220;2023-06-26T20:20:59;99049.78;;;25.24;43.98
48874;BME280;66155;46.204;5.220;2023-06-26T20:25:59;99051.25;;;25.09;44.07
48874;BME280;66155;46.204;5.220;2023-06-26T20:31:00;99053.81;;;24.93;44.65
48874;BME280;66155;46.204;5.220;2023-06-26T20:36:00;99062.03;;;24.88;44.83
48874;BME280;66155;46.204;5.220;2023-06-26T20:41:01;99066.16;;;24.85;44.66
48874;BME280;66155;46.204;5.220;2023-06-26T20:46:02;99056.13;;;24.82;44.72
48874;BME280;66155;46.204;5.220;2023-06-26T20:51:03;99072.22;;;24.74;45.22
48874;BME280;66155;46.204;5.220;2023-06-26T20:56:03;99066.34;;;24.68;45.63
48874;BME280;66155;46.204;5.220;2023-06-26T21:01:04;99064.09;;;24.58;45.67
48874;BME280;66155;46.204;5.220;2023-06-26T21:06:04;99075.25;;;24.51;45.75
48874;BME280;66155;46.204;5.220;2023-06-26T21:11:05;99068.03;;;24.39;46.04
48874;BME280;66155;46.204;5.220;2023-06-26T21:16:05;99068.88;;;24.31;46.29
48874;BME280;66155;46.204;5.220;2023-06-26T21:21:06;99078.78;;;24.31;46.48
48874;BME280;66155;46.204;5.220;2023-06-26T21:26:06;99064.72;;;24.21;46.53
48874;BME280;66155;46.204;5.220;2023-06-26T21:31:06;99075.75;;;24.20;46.62
48874;BME280;66155;46.204;5.220;2023-06-26T21:36:07;99089.56;;;24.13;46.73
48874;BME280;66155;46.204;5.220;2023-06-26T21:41:07;99084.91;;;24.10;46.81
48874;BME280;66155;46.204;5.220;2023-06-26T21:46:08;99097.19;;;24.02;47.23
48874;BME280;66155;46.204;5.220;2023-06-26T21:51:08;99096.81;;;23.91;47.61
48874;BME280;66155;46.204;5.220;2023-06-26T21:56:09;99090.13;;;23.77;47.99
48874;BME280;66155;46.204;5.220;2023-06-26T22:01:09;99104.28;;;23.68;48.18
48874;BME280;66155;46.204;5.220;2023-06-26T22:06:10;99090.09;;;23.56;48.12
48874;BME280;66155;46.204;5.220;2023-06-26T22:11:11;99096.88;;;23.53;48.08
48874;BME280;66155;46.204;5.220;2023-06-26T22:16:11;99108.50;;;23.40;48.34
48874;BME280;66155;46.204;5.220;2023-06-26T22:21:12;99110.75;;;23.29;48.36
48874;BME280;66155;46.204;5.220;2023-06-26T22:26:12;99111.44;;;23.17;48.75
48874;BME280;66155;46.204;5.220;2023-06-26T22:31:13;99115.84;;;23.04;48.50
48874;BME280;66155;46.204;5.220;2023-06-26T22:36:14;99119.03;;;22.89;49.11
48874;BME280;66155;46.204;5.220;2023-06-26T22:41:14;99118.75;;;22.82;48.87
48874;BME280;66155;46.204;5.220;2023-06-26T22:46:14;99114.38;;;22.68;48.87
48874;BME280;66155;46.204;5.220;2023-06-26T22:51:15;99114.41;;;22.59;48.69
48874;BME280;66155;46.204;5.220;2023-06-26T22:56:15;99114.41;;;22.51;48.91
48874;BME280;66155;46.204;5.220;2023-06-26T23:01:16;99121.31;;;22.43;48.75
48874;BME280;66155;46.204;5.220;2023-06-26T23:06:17;99114.78;;;22.32;48.93
48874;BME280;66155;46.204;5.220;2023-06-26T23:11:21;99120.81;;;22.24;48.82
48874;BME280;66155;46.204;5.220;2023-06-26T23:16:22;99123.00;;;22.13;48.80
48874;BME280;66155;46.204;5.220;2023-06-26T23:21:22;99109.28;;;22.11;48.82
48874;BME280;66155;46.204;5.220;2023-06-26T23:26:23;99123.16;;;22.08;48.94
48874;BME280;66155;46.204;5.220;2023-06-26T23:31:23;99121.94;;;22.05;48.84
48874;BME280;66155;46.204;5.220;2023-06-26T23:36:25;99116.75;;;21.91;48.78
48874;BME280;66155;46.204;5.220;2023-06-26T23:41:28;99123.16;;;21.73;49.22
48874;BME280;66155;46.204;5.220;2023-06-26T23:46:29;99120.94;;;21.57;48.94
48874;BME280;66155;46.204;5.220;2023-06-26T23:51:29;99120.91;;;21.49;49.24
48874;BME280;66155;46.204;5.220;2023-06-26T23:56:30;99136.59;;;21.45;49.08
